createdAt,value
2023-02-02T00:04:07.189Z,100
2023-02-02T00:09:09.067Z,100
2023-02-02T00:14:11.127Z,100
2023-02-02T00:19:13.289Z,100
2023-02-02T00:24:15.129Z,100
2023-02-02T00:29:17.122Z,100
2023-02-02T00:34:18.997Z,100
2023-02-02T00:39:20.947Z,100
2023-02-02T00:44:22.956Z,100
2023-02-02T00:49:24.957Z,100
2023-02-02T00:54:26.753Z,100
2023-02-02T00:59:28.877Z,100
2023-02-02T01:04:30.909Z,100
2023-02-02T01:09:32.810Z,100
2023-02-02T01:14:34.513Z,100
2023-02-02T01:19:36.454Z,100
2023-02-02T01:24:38.057Z,100
2023-02-02T01:29:39.574Z,100
2023-02-02T01:34:41.174Z,100
2023-02-02T01:39:42.641Z,100
2023-02-02T01:44:44.329Z,100
2023-02-02T01:49:45.989Z,100
2023-02-02T01:54:47.627Z,100
2023-02-02T01:59:49.213Z,100
2023-02-02T02:04:50.698Z,100
2023-02-02T02:09:52.154Z,100
2023-02-02T02:14:53.975Z,100
2023-02-02T02:19:55.745Z,100
2023-02-02T02:24:57.711Z,100
2023-02-02T02:29:59.376Z,100
2023-02-02T02:35:00.989Z,100
2023-02-02T02:40:02.548Z,100
2023-02-02T02:45:04.605Z,100
2023-02-02T02:50:06.296Z,100
2023-02-02T02:55:07.782Z,100
2023-02-02T03:00:09.587Z,100
2023-02-02T03:05:11.523Z,100
2023-02-02T03:10:13.189Z,100
2023-02-02T03:15:14.765Z,100
2023-02-02T03:20:16.644Z,100
2023-02-02T03:25:18.251Z,100
2023-02-02T03:30:20.191Z,100
2023-02-02T03:35:22.069Z,100
2023-02-02T03:40:23.818Z,100
2023-02-02T03:45:25.851Z,100
2023-02-02T03:50:27.971Z,100
2023-02-02T03:55:29.559Z,100
2023-02-02T04:00:31.376Z,100
2023-02-02T04:05:33.196Z,100
2023-02-02T04:10:35.015Z,100
2023-02-02T04:15:36.926Z,100
2023-02-02T04:20:38.581Z,100
2023-02-02T04:25:40.088Z,100
2023-02-02T04:30:41.743Z,100
2023-02-02T04:35:43.297Z,100
2023-02-02T04:40:44.862Z,100
2023-02-02T04:45:46.404Z,100
2023-02-02T04:50:48.125Z,100
2023-02-02T04:55:49.793Z,100
2023-02-02T05:00:51.302Z,100
2023-02-02T05:05:52.830Z,100
2023-02-02T05:10:54.538Z,100
2023-02-02T05:15:56.125Z,99.20406
2023-02-02T05:20:57.728Z,99.61668
2023-02-02T05:25:59.233Z,97.77554
2023-02-02T05:31:01.012Z,94.66587
2023-02-02T05:36:02.538Z,93.88752
2023-02-02T05:41:04.027Z,91.57083
2023-02-02T05:46:05.747Z,88.76795
2023-02-02T05:51:07.498Z,86.22987
2023-02-02T05:56:08.939Z,85.15455
2023-02-02T06:01:10.569Z,86.64543
2023-02-02T06:06:12.107Z,84.08564
2023-02-02T06:11:13.738Z,84.24317
2023-02-02T06:16:15.424Z,82.30971
2023-02-02T06:21:17.167Z,78.92346
2023-02-02T06:26:18.835Z,76.85228
2023-02-02T06:31:20.542Z,77.13606
2023-02-02T06:36:22.213Z,78.38229
2023-02-02T06:41:23.686Z,74.53533
2023-02-02T06:46:25.509Z,76.68518
2023-02-02T06:51:27.505Z,72.65047
2023-02-02T06:56:29.320Z,67.29862
2023-02-02T07:01:31.463Z,63.707
2023-02-02T07:06:33.352Z,67.49575
2023-02-02T07:11:37.009Z,64.79266
2023-02-02T07:16:40.655Z,63.42502
2023-02-02T07:21:42.388Z,63.72808
2023-02-02T07:26:44.030Z,65.2917
2023-02-02T07:31:45.798Z,57.09242
2023-02-02T07:36:47.374Z,56.95055
2023-02-02T07:41:49.320Z,55.5826
2023-02-02T07:46:50.788Z,57.5036
2023-02-02T07:51:53.047Z,52.81444
2023-02-02T07:56:54.845Z,53.65664
2023-02-02T08:01:56.843Z,53.04042
2023-02-02T08:06:58.790Z,51.30159
2023-02-02T08:12:00.533Z,52.14406
2023-02-02T08:17:02.465Z,48.3755
2023-02-02T08:22:04.987Z,49.92183
2023-02-02T08:27:06.815Z,49.18779
2023-02-02T08:32:08.807Z,48.0551
2023-02-02T08:37:10.607Z,46.52053
2023-02-02T08:42:12.427Z,43.13583
2023-02-02T08:47:14.027Z,46.12394
2023-02-02T08:52:16.370Z,42.84171
2023-02-02T08:57:18.170Z,45.00781
2023-02-02T09:02:20.264Z,44.67621
2023-02-02T09:07:22.085Z,44.15379
2023-02-02T09:12:23.879Z,45.69764
2023-02-02T09:17:25.995Z,47.80293
2023-02-02T09:22:28.904Z,54.3032
2023-02-02T09:27:30.843Z,52.89781
2023-02-02T09:32:32.869Z,57.65044
2023-02-02T09:37:34.871Z,60.71022
2023-02-02T09:42:36.479Z,56.74453
2023-02-02T09:47:38.183Z,49.95195
2023-02-02T09:52:40.078Z,45.67191
2023-02-02T09:57:41.531Z,46.92749
2023-02-02T10:02:43.047Z,45.03053
2023-02-02T10:07:44.535Z,41.58705
2023-02-02T10:12:46.015Z,38.4223
2023-02-02T10:17:48.002Z,40.0758
2023-02-02T10:22:50.126Z,39.89048
2023-02-02T10:27:51.590Z,41.23289
2023-02-02T10:32:53.434Z,45.02837
2023-02-02T10:37:54.956Z,43.86254
2023-02-02T10:42:57.209Z,39.28405
2023-02-02T10:47:59.599Z,36.4543
2023-02-02T10:53:01.509Z,49.48611
2023-02-02T10:58:03.790Z,55.95465
2023-02-02T11:03:05.717Z,56.88976
2023-02-02T11:08:07.693Z,56.46556
2023-02-02T11:13:09.580Z,64.89038
2023-02-02T11:18:11.263Z,84.95608
2023-02-02T11:23:13.167Z,89.39501
2023-02-02T11:28:14.822Z,87.28062
2023-02-02T11:33:16.879Z,87.49814
2023-02-02T11:38:18.689Z,88.9675
2023-02-02T11:43:20.809Z,88.962
2023-02-02T11:48:22.865Z,90.70205
2023-02-02T11:53:25.658Z,89.99662
2023-02-02T11:58:27.479Z,92.75633
2023-02-02T12:03:29.410Z,87.83022
2023-02-02T12:08:31.388Z,93.14596
2023-02-02T12:13:33.196Z,94.06434
2023-02-02T12:18:35.099Z,89.28777
2023-02-02T12:23:37.182Z,89.68055
2023-02-02T12:28:38.962Z,90.15882
2023-02-02T12:33:40.923Z,88.09012
2023-02-02T12:38:42.821Z,87.95262
2023-02-02T12:43:44.287Z,91.12277
2023-02-02T12:48:46.019Z,93.87476
2023-02-02T12:53:48.446Z,87.65846
2023-02-02T12:59:37.123Z,88.15044
2023-02-02T13:04:38.969Z,89.7277
2023-02-02T13:09:40.946Z,83.72292
2023-02-02T13:14:42.604Z,89.27283
2023-02-02T13:19:44.428Z,83.52971
2023-02-02T13:24:46.675Z,85.84305
2023-02-02T13:29:48.692Z,85.41042
2023-02-02T13:34:50.531Z,83.71295
2023-02-02T13:39:51.980Z,85.34699
2023-02-02T13:44:53.461Z,84.98171
2023-02-02T13:49:55.092Z,80.34722
2023-02-02T13:54:57.254Z,82.23713
2023-02-02T13:59:59.160Z,81.03803
2023-02-02T14:05:00.648Z,78.61888
2023-02-02T14:10:02.536Z,78.98423
2023-02-02T14:15:04.264Z,77.47667
2023-02-02T14:20:06.265Z,77.31293
2023-02-02T14:25:08.239Z,74.5863
2023-02-02T14:30:10.132Z,71.38203
2023-02-02T14:35:11.848Z,68.62306
2023-02-02T14:40:13.504Z,62.6292
2023-02-02T14:45:15.255Z,61.37635
2023-02-02T14:50:17.127Z,57.94098
2023-02-02T14:55:18.753Z,55.44446
2023-02-02T15:00:20.269Z,50.31545
2023-02-02T15:05:22.040Z,52.81869
2023-02-02T15:10:23.768Z,54.11336
2023-02-02T15:15:25.732Z,52.45044
2023-02-02T15:20:27.714Z,53.01116
2023-02-02T15:25:29.724Z,53.14867
2023-02-02T15:30:31.594Z,53.9134
2023-02-02T15:35:33.642Z,54.26573
2023-02-02T15:40:35.428Z,57.79041
2023-02-02T15:45:37.226Z,56.58703
2023-02-02T15:50:39.325Z,57.66963
2023-02-02T15:55:41.643Z,57.78731
2023-02-02T16:00:43.452Z,59.22719
2023-02-02T16:05:44.932Z,57.77892
2023-02-02T16:10:46.883Z,57.93368
2023-02-02T16:15:48.411Z,58.06381
2023-02-02T16:20:50.229Z,59.41332
2023-02-02T16:25:52.284Z,63.67813
2023-02-02T16:30:53.937Z,64.26444
2023-02-02T16:35:55.465Z,65.7329
2023-02-02T16:40:57.211Z,67.00715
2023-02-02T16:45:58.790Z,67.55689
2023-02-02T16:51:00.657Z,69.97121
2023-02-02T16:56:02.711Z,70.55721
2023-02-02T17:01:14.562Z,71.10532
2023-02-02T17:06:17.806Z,71.98698
2023-02-02T17:11:19.736Z,73.82149
2023-02-02T17:16:21.738Z,72.19894
2023-02-02T17:21:23.719Z,73.17338
2023-02-02T17:26:26.113Z,73.50952
2023-02-02T17:31:28.134Z,70.48538
2023-02-02T17:36:30.118Z,69.46291
2023-02-02T17:41:32.053Z,70.73483
2023-02-02T17:46:33.789Z,70.39116
2023-02-02T17:51:35.473Z,68.24342
2023-02-02T17:56:37.687Z,67.6008
2023-02-02T18:01:39.725Z,69.81205
2023-02-02T18:06:42.039Z,69.39872
2023-02-02T18:11:43.756Z,68.34102
2023-02-02T18:16:45.212Z,70.03843
2023-02-02T18:21:46.768Z,69.98523
2023-02-02T18:26:48.790Z,72.62979
2023-02-02T18:31:50.733Z,73.71189
2023-02-02T18:36:52.498Z,74.89733
2023-02-02T18:41:54.175Z,77.82061
2023-02-02T18:46:55.759Z,80.80327
2023-02-02T18:51:57.393Z,85.37854
2023-02-02T18:56:59.083Z,87.72393
2023-02-02T19:02:02.785Z,90.38806
2023-02-02T19:07:04.640Z,91.67344
2023-02-02T19:12:06.443Z,88.39719
2023-02-02T19:17:08.225Z,90.8344
2023-02-02T19:22:10.310Z,91.58415
2023-02-02T19:27:12.453Z,90.80375
2023-02-02T19:32:14.979Z,90.90512
2023-02-02T19:37:16.833Z,90.26327
2023-02-02T19:42:18.942Z,91.84713
2023-02-02T19:47:20.832Z,91.43882
2023-02-02T19:52:22.452Z,89.63988
2023-02-02T19:57:24.546Z,91.76478
2023-02-02T20:02:26.338Z,93.10886
2023-02-02T20:07:28.219Z,89.08687
2023-02-02T20:12:30.036Z,90.1225
2023-02-02T20:17:31.959Z,95.15828
2023-02-02T20:22:34.287Z,91.6154
2023-02-02T20:27:36.280Z,94.95458
2023-02-02T20:32:38.098Z,97.14046
2023-02-02T20:37:40.137Z,99.01818
2023-02-02T20:42:41.899Z,95.83173
2023-02-02T20:47:43.401Z,97.28817
2023-02-02T20:52:44.902Z,98.31931
2023-02-02T20:57:46.872Z,97.47459
2023-02-02T21:02:48.328Z,98.75764
2023-02-02T21:07:49.957Z,99.42432
2023-02-02T21:12:52.116Z,98.32534
2023-02-02T21:17:53.795Z,100
2023-02-02T21:22:55.467Z,100
2023-02-02T21:27:57.709Z,96.20318
2023-02-02T21:32:59.318Z,100
2023-02-02T21:38:00.793Z,94.56125
2023-02-02T21:43:02.572Z,96.15874
2023-02-02T21:48:04.290Z,99.06836
2023-02-02T21:53:05.881Z,99.62207
2023-02-02T21:58:07.766Z,98.98722
2023-02-02T22:03:09.653Z,100
2023-02-02T22:08:11.641Z,98.56834
2023-02-02T22:13:13.579Z,99.81625
2023-02-02T22:18:15.585Z,100
2023-02-02T22:23:17.461Z,100
2023-02-02T22:28:19.706Z,100
2023-02-02T22:33:21.659Z,100
2023-02-02T22:38:23.821Z,100
2023-02-02T22:43:25.801Z,100
2023-02-02T22:48:27.514Z,100
2023-02-02T22:53:29.242Z,100
2023-02-02T22:58:31.189Z,100
2023-02-02T23:03:33.040Z,100
2023-02-02T23:08:34.954Z,100
2023-02-02T23:13:36.862Z,100
2023-02-02T23:18:38.694Z,100
2023-02-02T23:23:40.900Z,100
2023-02-02T23:28:42.881Z,100
2023-02-02T23:33:44.445Z,99.66492
2023-02-02T23:38:46.451Z,100
2023-02-02T23:43:47.991Z,98.32628
2023-02-02T23:48:49.667Z,97.98162
2023-02-02T23:53:51.184Z,96.66924
2023-02-02T23:58:52.880Z,93.78855
